sensor_id;sensor_type;location;lat;lon;timestamp;P1;durP1;ratioP1;P2;durP2;ratioP2
22973;SDS011;11653;50.848;4.584;2023-11-18T00:02:11;36.20;;;22.67;;
22973;SDS011;11653;50.848;4.584;2023-11-18T00:04:36;30.93;;;21.80;;
22973;SDS011;11653;50.848;4.584;2023-11-18T00:07:02;40.23;;;23.00;;
22973;SDS011;11653;50.848;4.584;2023-11-18T00:09:29;35.50;;;21.87;;
22973;SDS011;11653;50.848;4.584;2023-11-18T00:11:54;34.37;;;22.67;;
22973;SDS011;11653;50.848;4.584;2023-11-18T00:14:20;36.43;;;23.83;;
22973;SDS011;11653;50.848;4.584;2023-11-18T00:16:46;35.27;;;23.23;;
22973;SDS011;11653;50.848;4.584;2023-11-18T00:19:12;37.63;;;23.90;;
22973;SDS011;11653;50.848;4.584;2023-11-18T00:21:38;32.97;;;23.73;;
22973;SDS011;11653;50.848;4.584;2023-11-18T00:24:03;36.93;;;23.20;;
22973;SDS011;11653;50.848;4.584;2023-11-18T00:26:30;38.63;;;24.00;;
22973;SDS011;11653;50.848;4.584;2023-11-18T00:28:55;41.33;;;23.67;;
22973;SDS011;11653;50.848;4.584;2023-11-18T00:31:21;44.00;;;23.33;;
22973;SDS011;11653;50.848;4.584;2023-11-18T00:33:47;38.80;;;23.80;;
22973;SDS011;11653;50.848;4.584;2023-11-18T00:36:12;34.67;;;23.07;;
22973;SDS011;11653;50.848;4.584;2023-11-18T00:38:38;34.20;;;22.70;;
22973;SDS011;11653;50.848;4.584;2023-11-18T00:41:05;39.33;;;24.20;;
22973;SDS011;11653;50.848;4.584;2023-11-18T00:43:31;38.13;;;23.13;;
22973;SDS011;11653;50.848;4.584;2023-11-18T00:45:57;34.47;;;22.30;;
22973;SDS011;11653;50.848;4.584;2023-11-18T00:48:24;35.80;;;23.07;;
22973;SDS011;11653;50.848;4.584;2023-11-18T00:50:50;36.77;;;22.40;;
22973;SDS011;11653;50.848;4.584;2023-11-18T00:53:16;37.90;;;22.83;;
22973;SDS011;11653;50.848;4.584;2023-11-18T00:55:42;33.33;;;21.67;;
22973;SDS011;11653;50.848;4.584;2023-11-18T00:58:08;33.83;;;22.83;;
22973;SDS011;11653;50.848;4.584;2023-11-18T01:00:33;35.53;;;21.27;;
22973;SDS011;11653;50.848;4.584;2023-11-18T01:03:01;34.97;;;21.77;;
22973;SDS011;11653;50.848;4.584;2023-11-18T01:05:28;29.70;;;21.30;;
22973;SDS011;11653;50.848;4.584;2023-11-18T01:07:56;32.83;;;20.97;;
22973;SDS011;11653;50.848;4.584;2023-11-18T01:10:23;35.83;;;21.07;;
22973;SDS011;11653;50.848;4.584;2023-11-18T01:12:48;36.53;;;20.80;;
22973;SDS011;11653;50.848;4.584;2023-11-18T01:15:14;38.37;;;24.57;;
22973;SDS011;11653;50.848;4.584;2023-11-18T01:17:40;32.53;;;21.80;;
22973;SDS011;11653;50.848;4.584;2023-11-18T01:20:06;34.23;;;22.23;;
22973;SDS011;11653;50.848;4.584;2023-11-18T01:22:39;36.40;;;22.00;;
22973;SDS011;11653;50.848;4.584;2023-11-18T01:25:06;30.63;;;20.20;;
22973;SDS011;11653;50.848;4.584;2023-11-18T01:27:34;32.13;;;21.07;;
22973;SDS011;11653;50.848;4.584;2023-11-18T01:29:59;36.40;;;21.70;;
22973;SDS011;11653;50.848;4.584;2023-11-18T01:32:25;31.37;;;20.47;;
22973;SDS011;11653;50.848;4.584;2023-11-18T01:34:51;30.00;;;19.47;;
22973;SDS011;11653;50.848;4.584;2023-11-18T01:37:18;32.57;;;19.47;;
22973;SDS011;11653;50.848;4.584;2023-11-18T01:39:48;31.90;;;19.20;;
22973;SDS011;11653;50.848;4.584;2023-11-18T01:42:14;29.70;;;19.23;;
22973;SDS011;11653;50.848;4.584;2023-11-18T01:44:40;29.40;;;20.23;;
22973;SDS011;11653;50.848;4.584;2023-11-18T01:47:06;28.43;;;19.53;;
22973;SDS011;11653;50.848;4.584;2023-11-18T01:49:35;34.47;;;19.40;;
22973;SDS011;11653;50.848;4.584;2023-11-18T01:52:05;30.77;;;19.30;;
22973;SDS011;11653;50.848;4.584;2023-11-18T01:54:32;30.70;;;19.23;;
22973;SDS011;11653;50.848;4.584;2023-11-18T01:56:59;32.87;;;19.40;;
22973;SDS011;11653;50.848;4.584;2023-11-18T01:59:27;30.17;;;19.73;;
22973;SDS011;11653;50.848;4.584;2023-11-18T02:01:55;32.47;;;19.03;;
22973;SDS011;11653;50.848;4.584;2023-11-18T02:04:24;31.33;;;20.43;;
22973;SDS011;11653;50.848;4.584;2023-11-18T02:06:50;32.27;;;18.87;;
22973;SDS011;11653;50.848;4.584;2023-11-18T02:09:18;33.13;;;18.10;;
22973;SDS011;11653;50.848;4.584;2023-11-18T02:14:41;29.67;;;18.20;;
22973;SDS011;11653;50.848;4.584;2023-11-18T02:17:09;29.37;;;18.10;;
22973;SDS011;11653;50.848;4.584;2023-11-18T02:19:37;28.87;;;19.13;;
22973;SDS011;11653;50.848;4.584;2023-11-18T02:22:04;30.60;;;19.07;;
22973;SDS011;11653;50.848;4.584;2023-11-18T02:24:32;30.67;;;18.17;;
22973;SDS011;11653;50.848;4.584;2023-11-18T02:27:02;33.63;;;17.30;;
22973;SDS011;11653;50.848;4.584;2023-11-18T02:29:37;37.03;;;18.40;;
22973;SDS011;11653;50.848;4.584;2023-11-18T02:35:09;31.40;;;18.40;;
22973;SDS011;11653;50.848;4.584;2023-11-18T02:37:35;30.10;;;17.77;;
22973;SDS011;11653;50.848;4.584;2023-11-18T02:40:05;28.90;;;17.47;;
22973;SDS011;11653;50.848;4.584;2023-11-18T02:42:36;26.17;;;16.97;;
22973;SDS011;11653;50.848;4.584;2023-11-18T02:45:04;29.20;;;15.73;;
22973;SDS011;11653;50.848;4.584;2023-11-18T02:47:33;29.27;;;16.23;;
22973;SDS011;11653;50.848;4.584;2023-11-18T02:49:59;28.97;;;16.13;;
22973;SDS011;11653;50.848;4.584;2023-11-18T02:52:30;31.13;;;16.40;;
22973;SDS011;11653;50.848;4.584;2023-11-18T02:54:56;31.10;;;16.63;;
22973;SDS011;11653;50.848;4.584;2023-11-18T02:57:21;29.33;;;15.40;;
22973;SDS011;11653;50.848;4.584;2023-11-18T02:59:47;26.13;;;14.90;;
22973;SDS011;11653;50.848;4.584;2023-11-18T03:02:13;29.03;;;14.57;;
22973;SDS011;11653;50.848;4.584;2023-11-18T03:04:40;28.67;;;15.27;;
22973;SDS011;11653;50.848;4.584;2023-11-18T03:07:07;30.07;;;15.30;;
22973;SDS011;11653;50.848;4.584;2023-11-18T03:09:33;29.67;;;15.37;;
22973;SDS011;11653;50.848;4.584;2023-11-18T03:12:00;30.70;;;16.23;;
22973;SDS011;11653;50.848;4.584;2023-11-18T03:14:25;29.10;;;15.27;;
22973;SDS011;11653;50.848;4.584;2023-11-18T03:16:51;30.13;;;15.67;;
22973;SDS011;11653;50.848;4.584;2023-11-18T03:19:20;31.57;;;15.20;;
22973;SDS011;11653;50.848;4.584;2023-11-18T03:21:50;28.10;;;15.67;;
22973;SDS011;11653;50.848;4.584;2023-11-18T03:24:18;37.40;;;15.83;;
22973;SDS011;11653;50.848;4.584;2023-11-18T03:26:44;30.27;;;15.30;;
22973;SDS011;11653;50.848;4.584;2023-11-18T03:29:09;28.87;;;15.23;;
22973;SDS011;11653;50.848;4.584;2023-11-18T03:31:38;25.13;;;14.80;;
22973;SDS011;11653;50.848;4.584;2023-11-18T03:34:04;31.63;;;15.33;;
22973;SDS011;11653;50.848;4.584;2023-11-18T03:36:29;31.47;;;15.13;;
22973;SDS011;11653;50.848;4.584;2023-11-18T03:38:55;30.00;;;14.33;;
22973;SDS011;11653;50.848;4.584;2023-11-18T03:41:20;29.20;;;15.10;;
22973;SDS011;11653;50.848;4.584;2023-11-18T03:43:48;25.00;;;13.77;;
22973;SDS011;11653;50.848;4.584;2023-11-18T03:46:14;27.90;;;14.57;;
22973;SDS011;11653;50.848;4.584;2023-11-18T03:48:40;24.40;;;14.50;;
22973;SDS011;11653;50.848;4.584;2023-11-18T03:51:09;29.73;;;13.43;;
22973;SDS011;11653;50.848;4.584;2023-11-18T03:53:34;26.83;;;13.63;;
22973;SDS011;11653;50.848;4.584;2023-11-18T03:56:00;29.40;;;13.20;;
22973;SDS011;11653;50.848;4.584;2023-11-18T03:58:27;22.53;;;12.43;;
22973;SDS011;11653;50.848;4.584;2023-11-18T04:00:53;20.83;;;10.83;;
22973;SDS011;11653;50.848;4.584;2023-11-18T04:03:19;19.03;;;10.47;;
22973;SDS011;11653;50.848;4.584;2023-11-18T04:05:44;21.97;;;10.63;;
22973;SDS011;11653;50.848;4.584;2023-11-18T04:08:10;19.03;;;10.13;;
22973;SDS011;11653;50.848;4.584;2023-11-18T04:10:36;22.67;;;10.67;;
22973;SDS011;11653;50.848;4.584;2023-11-18T04:13:02;20.10;;;10.90;;
22973;SDS011;11653;50.848;4.584;2023-11-18T04:15:28;20.17;;;9.57;;
22973;SDS011;11653;50.848;4.584;2023-11-18T04:17:53;22.60;;;10.23;;
22973;SDS011;11653;50.848;4.584;2023-11-18T04:20:19;23.00;;;10.23;;
22973;SDS011;11653;50.848;4.584;2023-11-18T04:22:45;21.33;;;10.17;;
22973;SDS011;11653;50.848;4.584;2023-11-18T04:25:11;21.97;;;9.77;;
22973;SDS011;11653;50.848;4.584;2023-11-18T04:27:40;20.40;;;9.20;;
22973;SDS011;11653;50.848;4.584;2023-11-18T04:30:06;25.10;;;9.27;;
22973;SDS011;11653;50.848;4.584;2023-11-18T04:32:33;23.03;;;10.07;;
22973;SDS011;11653;50.848;4.584;2023-11-18T04:34:59;16.63;;;7.57;;
22973;SDS011;11653;50.848;4.584;2023-11-18T04:37:31;16.70;;;8.33;;
22973;SDS011;11653;50.848;4.584;2023-11-18T04:40:01;18.80;;;8.70;;
22973;SDS011;11653;50.848;4.584;2023-11-18T04:42:27;19.27;;;8.23;;
22973;SDS011;11653;50.848;4.584;2023-11-18T04:44:54;20.23;;;8.77;;
22973;SDS011;11653;50.848;4.584;2023-11-18T04:47:23;20.93;;;8.03;;
22973;SDS011;11653;50.848;4.584;2023-11-18T04:49:50;25.60;;;9.67;;
22973;SDS011;11653;50.848;4.584;2023-11-18T04:52:17;24.87;;;8.50;;
22973;SDS011;11653;50.848;4.584;2023-11-18T04:54:42;21.10;;;7.40;;
22973;SDS011;11653;50.848;4.584;2023-11-18T04:57:08;15.57;;;7.67;;
22973;SDS011;11653;50.848;4.584;2023-11-18T04:59:34;18.77;;;7.63;;
22973;SDS011;11653;50.848;4.584;2023-11-18T05:02:00;19.23;;;7.07;;
22973;SDS011;11653;50.848;4.584;2023-11-18T05:04:27;20.53;;;7.20;;
22973;SDS011;11653;50.848;4.584;2023-11-18T05:06:53;19.60;;;6.60;;
22973;SDS011;11653;50.848;4.584;2023-11-18T05:09:19;22.90;;;7.20;;
22973;SDS011;11653;50.848;4.584;2023-11-18T05:11:45;18.73;;;6.97;;
22973;SDS011;11653;50.848;4.584;2023-11-18T05:14:11;19.20;;;6.73;;
22973;SDS011;11653;50.848;4.584;2023-11-18T05:16:37;14.50;;;8.83;;
22973;SDS011;11653;50.848;4.584;2023-11-18T05:19:04;15.53;;;7.37;;
22973;SDS011;11653;50.848;4.584;2023-11-18T05:21:30;11.73;;;5.40;;
22973;SDS011;11653;50.848;4.584;2023-11-18T05:23:55;18.33;;;6.43;;
22973;SDS011;11653;50.848;4.584;2023-11-18T05:26:22;15.33;;;5.33;;
22973;SDS011;11653;50.848;4.584;2023-11-18T05:28:47;14.60;;;5.47;;
22973;SDS011;11653;50.848;4.584;2023-11-18T05:31:15;17.13;;;7.07;;
22973;SDS011;11653;50.848;4.584;2023-11-18T05:33:41;18.83;;;6.03;;
22973;SDS011;11653;50.848;4.584;2023-11-18T05:36:08;16.77;;;6.03;;
22973;SDS011;11653;50.848;4.584;2023-11-18T05:38:35;14.13;;;5.87;;
22973;SDS011;11653;50.848;4.584;2023-11-18T05:41:02;12.87;;;5.90;;
22973;SDS011;11653;50.848;4.584;2023-11-18T05:43:29;17.13;;;5.30;;
22973;SDS011;11653;50.848;4.584;2023-11-18T05:46:05;12.60;;;4.80;;
22973;SDS011;11653;50.848;4.584;2023-11-18T05:48:42;13.37;;;4.60;;
22973;SDS011;11653;50.848;4.584;2023-11-18T05:51:09;10.90;;;4.43;;
22973;SDS011;11653;50.848;4.584;2023-11-18T05:53:39;15.10;;;4.17;;
22973;SDS011;11653;50.848;4.584;2023-11-18T05:56:06;12.40;;;4.93;;
22973;SDS011;11653;50.848;4.584;2023-11-18T05:58:32;11.93;;;4.07;;
22973;SDS011;11653;50.848;4.584;2023-11-18T06:00:58;14.03;;;4.20;;
22973;SDS011;11653;50.848;4.584;2023-11-18T06:03:23;18.40;;;4.53;;
22973;SDS011;11653;50.848;4.584;2023-11-18T06:05:49;10.57;;;3.97;;
22973;SDS011;11653;50.848;4.584;2023-11-18T06:08:16;11.10;;;4.40;;
22973;SDS011;11653;50.848;4.584;2023-11-18T06:10:41;11.87;;;4.40;;
22973;SDS011;11653;50.848;4.584;2023-11-18T06:13:09;10.70;;;3.70;;
22973;SDS011;11653;50.848;4.584;2023-11-18T06:15:38;9.33;;;3.17;;
22973;SDS011;11653;50.848;4.584;2023-11-18T06:18:04;7.47;;;3.33;;
22973;SDS011;11653;50.848;4.584;2023-11-18T06:20:30;10.93;;;3.73;;
22973;SDS011;11653;50.848;4.584;2023-11-18T06:23:00;12.50;;;3.47;;
22973;SDS011;11653;50.848;4.584;2023-11-18T06:25:25;12.80;;;3.40;;
22973;SDS011;11653;50.848;4.584;2023-11-18T06:27:51;8.97;;;3.20;;
22973;SDS011;11653;50.848;4.584;2023-11-18T06:30:20;8.43;;;3.30;;
22973;SDS011;11653;50.848;4.584;2023-11-18T06:32:47;5.87;;;2.90;;
22973;SDS011;11653;50.848;4.584;2023-11-18T06:35:13;15.57;;;4.30;;
22973;SDS011;11653;50.848;4.584;2023-11-18T06:37:41;13.27;;;4.40;;
22973;SDS011;11653;50.848;4.584;2023-11-18T06:40:08;11.63;;;3.27;;
22973;SDS011;11653;50.848;4.584;2023-11-18T06:42:44;10.60;;;3.43;;
22973;SDS011;11653;50.848;4.584;2023-11-18T06:45:14;11.30;;;2.80;;
22973;SDS011;11653;50.848;4.584;2023-11-18T06:47:40;11.00;;;2.80;;
22973;SDS011;11653;50.848;4.584;2023-11-18T06:50:09;9.50;;;2.73;;
22973;SDS011;11653;50.848;4.584;2023-11-18T06:52:39;7.77;;;3.03;;
22973;SDS011;11653;50.848;4.584;2023-11-18T06:55:06;9.70;;;3.50;;
22973;SDS011;11653;50.848;4.584;2023-11-18T06:57:32;11.13;;;3.40;;
22973;SDS011;11653;50.848;4.584;2023-11-18T06:59:58;12.63;;;3.27;;
22973;SDS011;11653;50.848;4.584;2023-11-18T07:02:24;8.73;;;3.13;;
22973;SDS011;11653;50.848;4.584;2023-11-18T07:04:49;11.50;;;3.53;;
22973;SDS011;11653;50.848;4.584;2023-11-18T07:07:15;8.97;;;3.50;;
22973;SDS011;11653;50.848;4.584;2023-11-18T07:09:41;12.63;;;3.80;;
22973;SDS011;11653;50.848;4.584;2023-11-18T07:12:09;7.77;;;3.00;;
22973;SDS011;11653;50.848;4.584;2023-11-18T07:14:35;11.00;;;3.97;;
22973;SDS011;11653;50.848;4.584;2023-11-18T07:17:00;7.50;;;2.80;;
22973;SDS011;11653;50.848;4.584;2023-11-18T07:19:26;10.20;;;2.80;;
22973;SDS011;11653;50.848;4.584;2023-11-18T07:21:53;10.83;;;3.40;;
22973;SDS011;11653;50.848;4.584;2023-11-18T07:24:19;9.20;;;3.63;;
22973;SDS011;11653;50.848;4.584;2023-11-18T07:26:47;13.63;;;3.97;;
22973;SDS011;11653;50.848;4.584;2023-11-18T07:29:13;7.97;;;3.23;;
22973;SDS011;11653;50.848;4.584;2023-11-18T07:31:39;9.20;;;3.83;;
22973;SDS011;11653;50.848;4.584;2023-11-18T07:34:04;11.13;;;3.33;;
22973;SDS011;11653;50.848;4.584;2023-11-18T07:36:31;9.27;;;4.00;;
22973;SDS011;11653;50.848;4.584;2023-11-18T07:38:57;11.67;;;3.43;;
22973;SDS011;11653;50.848;4.584;2023-11-18T07:41:26;12.90;;;4.17;;
22973;SDS011;11653;50.848;4.584;2023-11-18T07:43:52;11.73;;;4.13;;
22973;SDS011;11653;50.848;4.584;2023-11-18T07:46:20;10.67;;;3.77;;
22973;SDS011;11653;50.848;4.584;2023-11-18T07:48:49;10.97;;;4.00;;
22973;SDS011;11653;50.848;4.584;2023-11-18T07:51:19;11.53;;;4.00;;
22973;SDS011;11653;50.848;4.584;2023-11-18T07:53:48;9.33;;;4.27;;
22973;SDS011;11653;50.848;4.584;2023-11-18T07:56:14;10.47;;;4.70;;
22973;SDS011;11653;50.848;4.584;2023-11-18T07:58:44;12.63;;;3.90;;
22973;SDS011;11653;50.848;4.584;2023-11-18T08:01:13;12.20;;;4.80;;
22973;SDS011;11653;50.848;4.584;2023-11-18T08:03:41;8.50;;;4.27;;
22973;SDS011;11653;50.848;4.584;2023-11-18T08:06:07;11.80;;;4.73;;
22973;SDS011;11653;50.848;4.584;2023-11-18T08:08:36;13.83;;;4.57;;
22973;SDS011;11653;50.848;4.584;2023-11-18T08:11:03;13.17;;;5.20;;
22973;SDS011;11653;50.848;4.584;2023-11-18T08:13:30;13.67;;;5.60;;
22973;SDS011;11653;50.848;4.584;2023-11-18T08:15:55;8.33;;;4.70;;
22973;SDS011;11653;50.848;4.584;2023-11-18T08:18:23;18.43;;;6.33;;
22973;SDS011;11653;50.848;4.584;2023-11-18T08:20:49;8.50;;;4.57;;
22973;SDS011;11653;50.848;4.584;2023-11-18T08:23:15;12.30;;;4.27;;
22973;SDS011;11653;50.848;4.584;2023-11-18T08:25:41;9.87;;;5.27;;
22973;SDS011;11653;50.848;4.584;2023-11-18T08:28:07;12.23;;;5.40;;
22973;SDS011;11653;50.848;4.584;2023-11-18T08:30:33;8.40;;;4.30;;
22973;SDS011;11653;50.848;4.584;2023-11-18T08:32:59;17.90;;;6.03;;
22973;SDS011;11653;50.848;4.584;2023-11-18T08:35:25;15.90;;;5.57;;
22973;SDS011;11653;50.848;4.584;2023-11-18T08:37:51;12.30;;;4.90;;
22973;SDS011;11653;50.848;4.584;2023-11-18T08:40:17;8.73;;;5.97;;
22973;SDS011;11653;50.848;4.584;2023-11-18T08:42:53;13.97;;;5.10;;
22973;SDS011;11653;50.848;4.584;2023-11-18T08:45:25;13.00;;;6.63;;
22973;SDS011;11653;50.848;4.584;2023-11-18T08:47:58;12.07;;;4.83;;
22973;SDS011;11653;50.848;4.584;2023-11-18T08:50:26;15.40;;;7.70;;
22973;SDS011;11653;50.848;4.584;2023-11-18T08:52:53;10.57;;;4.70;;
22973;SDS011;11653;50.848;4.584;2023-11-18T08:55:23;14.07;;;5.90;;
22973;SDS011;11653;50.848;4.584;2023-11-18T08:58:03;11.73;;;4.23;;
22973;SDS011;11653;50.848;4.584;2023-11-18T09:00:47;13.53;;;4.90;;
22973;SDS011;11653;50.848;4.584;2023-11-18T09:03:23;11.13;;;4.27;;
22973;SDS011;11653;50.848;4.584;2023-11-18T09:05:54;13.27;;;4.70;;
22973;SDS011;11653;50.848;4.584;2023-11-18T09:11:07;12.63;;;5.03;;
22973;SDS011;11653;50.848;4.584;2023-11-18T09:13:39;13.17;;;5.73;;
22973;SDS011;11653;50.848;4.584;2023-11-18T09:16:07;9.03;;;4.63;;
22973;SDS011;11653;50.848;4.584;2023-11-18T09:18:34;12.60;;;5.60;;
22973;SDS011;11653;50.848;4.584;2023-11-18T09:21:01;11.77;;;5.10;;
22973;SDS011;11653;50.848;4.584;2023-11-18T09:23:29;17.20;;;10.00;;
22973;SDS011;11653;50.848;4.584;2023-11-18T09:25:57;16.50;;;9.07;;
22973;SDS011;11653;50.848;4.584;2023-11-18T09:28:23;12.80;;;5.97;;
22973;SDS011;11653;50.848;4.584;2023-11-18T09:30:49;12.30;;;5.80;;
22973;SDS011;11653;50.848;4.584;2023-11-18T09:33:21;13.63;;;6.63;;
22973;SDS011;11653;50.848;4.584;2023-11-18T09:36:02;11.17;;;5.67;;
22973;SDS011;11653;50.848;4.584;2023-11-18T09:38:33;14.17;;;7.03;;
22973;SDS011;11653;50.848;4.584;2023-11-18T09:41:03;11.07;;;5.73;;
22973;SDS011;11653;50.848;4.584;2023-11-18T09:43:35;8.50;;;5.37;;
22973;SDS011;11653;50.848;4.584;2023-11-18T09:46:10;12.77;;;6.00;;
22973;SDS011;11653;50.848;4.584;2023-11-18T09:51:25;8.30;;;5.50;;
22973;SDS011;11653;50.848;4.584;2023-11-18T09:53:55;21.27;;;8.87;;
22973;SDS011;11653;50.848;4.584;2023-11-18T09:59:06;8.40;;;5.40;;
22973;SDS011;11653;50.848;4.584;2023-11-18T10:01:40;11.33;;;5.63;;
22973;SDS011;11653;50.848;4.584;2023-11-18T10:04:09;12.33;;;8.50;;
22973;SDS011;11653;50.848;4.584;2023-11-18T10:06:36;13.67;;;7.10;;
22973;SDS011;11653;50.848;4.584;2023-11-18T10:09:05;13.47;;;7.07;;
22973;SDS011;11653;50.848;4.584;2023-11-18T10:11:48;12.40;;;5.97;;
22973;SDS011;11653;50.848;4.584;2023-11-18T10:14:14;12.73;;;7.50;;
22973;SDS011;11653;50.848;4.584;2023-11-18T10:16:41;10.13;;;5.40;;
22973;SDS011;11653;50.848;4.584;2023-11-18T10:19:11;13.70;;;6.77;;
22973;SDS011;11653;50.848;4.584;2023-11-18T10:21:37;12.83;;;7.40;;
22973;SDS011;11653;50.848;4.584;2023-11-18T10:24:09;10.60;;;7.20;;
22973;SDS011;11653;50.848;4.584;2023-11-18T10:26:44;12.33;;;6.93;;
22973;SDS011;11653;50.848;4.584;2023-11-18T10:29:21;12.60;;;5.93;;
22973;SDS011;11653;50.848;4.584;2023-11-18T10:31:49;13.70;;;5.30;;
22973;SDS011;11653;50.848;4.584;2023-11-18T10:34:18;10.10;;;6.00;;
22973;SDS011;11653;50.848;4.584;2023-11-18T10:37:01;11.27;;;5.97;;
22973;SDS011;11653;50.848;4.584;2023-11-18T10:39:31;12.17;;;6.20;;
22973;SDS011;11653;50.848;4.584;2023-11-18T10:42:00;10.33;;;6.40;;
22973;SDS011;11653;50.848;4.584;2023-11-18T10:44:27;11.30;;;6.20;;
22973;SDS011;11653;50.848;4.584;2023-11-18T10:46:54;13.53;;;6.27;;
22973;SDS011;11653;50.848;4.584;2023-11-18T10:49:29;11.53;;;5.67;;
22973;SDS011;11653;50.848;4.584;2023-11-18T10:52:01;9.70;;;5.30;;
22973;SDS011;11653;50.848;4.584;2023-11-18T10:54:32;10.37;;;6.90;;
22973;SDS011;11653;50.848;4.584;2023-11-18T10:56:59;10.00;;;5.50;;
22973;SDS011;11653;50.848;4.584;2023-11-18T10:59:32;10.57;;;6.80;;
22973;SDS011;11653;50.848;4.584;2023-11-18T11:01:58;12.70;;;8.30;;
22973;SDS011;11653;50.848;4.584;2023-11-18T11:04:42;10.00;;;5.67;;
22973;SDS011;11653;50.848;4.584;2023-11-18T11:07:10;10.07;;;6.20;;
22973;SDS011;11653;50.848;4.584;2023-11-18T11:09:38;7.13;;;5.17;;
22973;SDS011;11653;50.848;4.584;2023-11-18T11:12:09;9.33;;;6.10;;
22973;SDS011;11653;50.848;4.584;2023-11-18T11:14:42;8.10;;;5.07;;
22973;SDS011;11653;50.848;4.584;2023-11-18T11:17:19;8.43;;;3.67;;
22973;SDS011;11653;50.848;4.584;2023-11-18T11:19:55;11.20;;;4.23;;
22973;SDS011;11653;50.848;4.584;2023-11-18T11:22:41;5.97;;;3.23;;
22973;SDS011;11653;50.848;4.584;2023-11-18T11:25:41;7.87;;;4.13;;
22973;SDS011;11653;50.848;4.584;2023-11-18T11:28:15;5.63;;;3.90;;
22973;SDS011;11653;50.848;4.584;2023-11-18T11:30:45;7.10;;;3.70;;
22973;SDS011;11653;50.848;4.584;2023-11-18T11:33:34;4.27;;;3.07;;
22973;SDS011;11653;50.848;4.584;2023-11-18T11:36:09;6.10;;;3.57;;
22973;SDS011;11653;50.848;4.584;2023-11-18T11:38:37;9.07;;;4.70;;
22973;SDS011;11653;50.848;4.584;2023-11-18T11:41:03;8.50;;;5.13;;
22973;SDS011;11653;50.848;4.584;2023-11-18T11:43:30;8.97;;;4.43;;
22973;SDS011;11653;50.848;4.584;2023-11-18T11:45:59;6.07;;;3.00;;
22973;SDS011;11653;50.848;4.584;2023-11-18T11:48:28;4.00;;;2.37;;
22973;SDS011;11653;50.848;4.584;2023-11-18T11:54:40;6.90;;;3.00;;
22973;SDS011;11653;50.848;4.584;2023-11-18T11:57:03;5.17;;;2.70;;
22973;SDS011;11653;50.848;4.584;2023-11-18T12:02:09;6.93;;;3.63;;
22973;SDS011;11653;50.848;4.584;2023-11-18T12:04:36;3.87;;;2.40;;
22973;SDS011;11653;50.848;4.584;2023-11-18T12:07:06;6.13;;;2.87;;
22973;SDS011;11653;50.848;4.584;2023-11-18T12:09:34;3.30;;;2.40;;
22973;SDS011;11653;50.848;4.584;2023-11-18T12:12:04;8.60;;;2.60;;
22973;SDS011;11653;50.848;4.584;2023-11-18T12:14:50;3.70;;;2.00;;
22973;SDS011;11653;50.848;4.584;2023-11-18T12:17:17;2.90;;;2.33;;
22973;SDS011;11653;50.848;4.584;2023-11-18T12:19:46;3.57;;;1.73;;
22973;SDS011;11653;50.848;4.584;2023-11-18T12:22:21;4.80;;;1.90;;
22973;SDS011;11653;50.848;4.584;2023-11-18T12:30:05;3.27;;;1.47;;
22973;SDS011;11653;50.848;4.584;2023-11-18T12:35:25;5.10;;;1.70;;
22973;SDS011;11653;50.848;4.584;2023-11-18T12:38:08;2.70;;;1.70;;
22973;SDS011;11653;50.848;4.584;2023-11-18T12:41:00;4.00;;;2.83;;
22973;SDS011;11653;50.848;4.584;2023-11-18T12:43:42;4.00;;;2.57;;
22973;SDS011;11653;50.848;4.584;2023-11-18T12:49:36;2.97;;;2.10;;
22973;SDS011;11653;50.848;4.584;2023-11-18T12:52:06;2.70;;;1.83;;
22973;SDS011;11653;50.848;4.584;2023-11-18T12:54:36;3.23;;;1.60;;
22973;SDS011;11653;50.848;4.584;2023-11-18T12:57:03;1.70;;;1.60;;
22973;SDS011;11653;50.848;4.584;2023-11-18T12:59:35;3.03;;;1.53;;
22973;SDS011;11653;50.848;4.584;2023-11-18T13:02:02;3.33;;;2.10;;
22973;SDS011;11653;50.848;4.584;2023-11-18T13:04:38;2.63;;;2.20;;
22973;SDS011;11653;50.848;4.584;2023-11-18T13:07:05;2.80;;;1.70;;
22973;SDS011;11653;50.848;4.584;2023-11-18T13:09:34;2.37;;;1.63;;
22973;SDS011;11653;50.848;4.584;2023-11-18T13:12:01;3.27;;;1.73;;
22973;SDS011;11653;50.848;4.584;2023-11-18T13:14:34;2.30;;;1.90;;
22973;SDS011;11653;50.848;4.584;2023-11-18T13:17:04;2.10;;;1.47;;
22973;SDS011;11653;50.848;4.584;2023-11-18T13:19:33;1.67;;;1.53;;
22973;SDS011;11653;50.848;4.584;2023-11-18T13:22:00;2.73;;;1.60;;
22973;SDS011;11653;50.848;4.584;2023-11-18T13:24:28;2.30;;;1.07;;
22973;SDS011;11653;50.848;4.584;2023-11-18T13:26:56;1.90;;;1.40;;
22973;SDS011;11653;50.848;4.584;2023-11-18T13:29:23;2.03;;;1.47;;
22973;SDS011;11653;50.848;4.584;2023-11-18T13:31:50;1.90;;;1.67;;
22973;SDS011;11653;50.848;4.584;2023-11-18T13:34:19;1.30;;;1.20;;
22973;SDS011;11653;50.848;4.584;2023-11-18T13:36:49;1.87;;;1.43;;
22973;SDS011;11653;50.848;4.584;2023-11-18T13:39:16;1.90;;;1.40;;
22973;SDS011;11653;50.848;4.584;2023-11-18T13:41:49;1.93;;;1.37;;
22973;SDS011;11653;50.848;4.584;2023-11-18T13:44:34;3.00;;;1.70;;
22973;SDS011;11653;50.848;4.584;2023-11-18T13:47:07;1.77;;;1.60;;
22973;SDS011;11653;50.848;4.584;2023-11-18T13:49:36;2.30;;;1.50;;
22973;SDS011;11653;50.848;4.584;2023-11-18T13:52:06;1.57;;;1.30;;
22973;SDS011;11653;50.848;4.584;2023-11-18T13:54:37;1.47;;;1.37;;
22973;SDS011;11653;50.848;4.584;2023-11-18T13:57:03;3.27;;;1.30;;
22973;SDS011;11653;50.848;4.584;2023-11-18T13:59:31;1.60;;;1.50;;
22973;SDS011;11653;50.848;4.584;2023-11-18T14:01:57;3.20;;;1.70;;
22973;SDS011;11653;50.848;4.584;2023-11-18T14:04:27;2.27;;;1.83;;
22973;SDS011;11653;50.848;4.584;2023-11-18T14:06:57;2.93;;;1.77;;
22973;SDS011;11653;50.848;4.584;2023-11-18T14:09:24;5.00;;;2.40;;
22973;SDS011;11653;50.848;4.584;2023-11-18T14:11:51;2.53;;;2.20;;
22973;SDS011;11653;50.848;4.584;2023-11-18T14:14:20;3.43;;;2.43;;
22973;SDS011;11653;50.848;4.584;2023-11-18T14:16:46;5.70;;;2.97;;
22973;SDS011;11653;50.848;4.584;2023-11-18T14:19:12;3.67;;;2.37;;
22973;SDS011;11653;50.848;4.584;2023-11-18T14:21:38;3.67;;;2.80;;
22973;SDS011;11653;50.848;4.584;2023-11-18T14:24:10;5.67;;;3.83;;
22973;SDS011;11653;50.848;4.584;2023-11-18T14:26:37;4.40;;;2.17;;
22973;SDS011;11653;50.848;4.584;2023-11-18T14:29:05;2.80;;;2.23;;
22973;SDS011;11653;50.848;4.584;2023-11-18T14:31:31;3.43;;;2.10;;
22973;SDS011;11653;50.848;4.584;2023-11-18T14:33:59;2.50;;;2.07;;
22973;SDS011;11653;50.848;4.584;2023-11-18T14:36:25;5.63;;;2.10;;
22973;SDS011;11653;50.848;4.584;2023-11-18T14:38:51;1.70;;;1.60;;
22973;SDS011;11653;50.848;4.584;2023-11-18T14:41:17;1.77;;;1.47;;
22973;SDS011;11653;50.848;4.584;2023-11-18T14:43:45;1.80;;;1.37;;
22973;SDS011;11653;50.848;4.584;2023-11-18T14:46:11;1.43;;;1.33;;
22973;SDS011;11653;50.848;4.584;2023-11-18T14:48:38;1.33;;;1.23;;
22973;SDS011;11653;50.848;4.584;2023-11-18T14:51:04;2.10;;;1.83;;
22973;SDS011;11653;50.848;4.584;2023-11-18T14:53:32;1.53;;;1.37;;
22973;SDS011;11653;50.848;4.584;2023-11-18T14:55:59;1.60;;;1.50;;
22973;SDS011;11653;50.848;4.584;2023-11-18T14:58:25;1.53;;;1.43;;
22973;SDS011;11653;50.848;4.584;2023-11-18T15:00:51;2.23;;;1.30;;
22973;SDS011;11653;50.848;4.584;2023-11-18T15:03:17;1.87;;;1.40;;
22973;SDS011;11653;50.848;4.584;2023-11-18T15:05:42;1.53;;;1.40;;
22973;SDS011;11653;50.848;4.584;2023-11-18T15:08:11;1.70;;;1.60;;
22973;SDS011;11653;50.848;4.584;2023-11-18T15:10:39;4.97;;;1.87;;
22973;SDS011;11653;50.848;4.584;2023-11-18T15:13:07;2.30;;;1.97;;
22973;SDS011;11653;50.848;4.584;2023-11-18T15:15:37;1.27;;;1.17;;